Information Last Ob Photographs Calibration Meteogram Network Table Neighbors Monthly Summaries Observation History Wind Roses Custom Wind Roses Data Calendar Satellite Cloud Product Download Terminal Aerodome Forecast

Most Recent Observation

This application displays the last observation received by the IEM from this site. The time stamp is in America/Chicago timezone.

Observation Local Time19 Apr 2024, 2:53 AM
Observation UTC Time2024-04-19T07:53:00Z
Air Temp [F]32
Maximum Air Temperature [F]32
Minimum Air Temperature [F]32
Dew Point [F]26
Wind DirectionW (260 degrees)
Wind Speed [knots]7
Altimeter [inches]30.16
Raw Observation/ProductKMCW 190753Z AUTO 26007KT 10SM CLR 00/M03 A3016 RMK AO2 SLP216 T00001033
Cloud Layer 1: CLR ( feet)

This data was provided by a JSON(P) webservice. You can find more JSON services.